Time;durP1;ratioP1;P1;durP2;ratioP2;P2;SDS_P1;SDS_P2;PMS_P1;PMS_P2;Temp;Humidity;BMP_temperature;BMP_pressure;BME280_temperature;BME280_humidity;BME280_pressure;Samples;Min_cycle;Max_cycle;Signal;HPM_P1;HPM_P2
2022/05/11 00:02:18;;;;;;;5.45;4.93;;;21.20;63.70;;;;;;10074964;28;20032;-62
2022/05/11 00:07:08;;;;;;;5.30;3.60;;;21.20;64.20;;;;;;10072488;28;20473;-63
2022/05/11 00:11:59;;;;;;;3.50;2.97;;;21.10;64.80;;;;;;10072001;28;20029;-61
2022/05/11 00:16:50;;;;;;;6.82;3.30;;;21.00;65.50;;;;;;10070709;28;20521;-63
2022/05/11 00:21:41;;;;;;;4.55;3.45;;;21.00;65.80;;;;;;10078349;28;20542;-63
2022/05/11 00:26:31;;;;;;;3.90;3.33;;;21.00;66.20;;;;;;10062198;28;20037;-61
2022/05/11 00:31:22;;;;;;;5.75;3.40;;;20.90;66.60;;;;;;10076275;28;20036;-62
2022/05/11 00:36:14;;;;;;;4.60;3.63;;;20.80;67.00;;;;;;10079354;28;20503;-61
2022/05/11 00:41:05;;;;;;;6.72;4.50;;;20.70;67.70;;;;;;10067845;28;20033;-62
2022/05/11 00:46:09;;;;;;;5.15;4.18;;;20.60;68.20;;;;;;10061696;28;20033;-62
2022/05/11 00:51:00;;;;;;;5.53;3.75;;;20.60;68.70;;;;;;10076310;28;20027;-62
2022/05/11 00:55:56;;;;;;;4.45;3.38;;;20.60;68.80;;;;;;10076570;28;20029;-61
2022/05/11 01:00:47;;;;;;;5.97;4.15;;;20.50;69.40;;;;;;10082421;28;20534;-63
2022/05/11 01:05:42;;;;;;;6.25;3.83;;;20.50;69.70;;;;;;10081675;28;20033;-62
2022/05/11 01:10:32;;;;;;;5.87;3.93;;;20.50;70.10;;;;;;10081539;28;20334;-65
2022/05/11 01:15:25;;;;;;;11.15;6.13;;;20.40;70.50;;;;;;10078085;28;20047;-62
2022/05/11 01:20:19;;;;;;;4.70;3.80;;;20.40;70.90;;;;;;10080097;28;20253;-62
2022/05/11 01:25:11;;;;;;;7.72;4.75;;;20.30;71.10;;;;;;10082103;28;20064;-62
2022/05/11 01:30:10;;;;;;;4.50;3.92;;;20.30;71.60;;;;;;10078837;28;20036;-62
2022/05/11 01:35:25;;;;;;;5.13;3.65;;;20.20;72.00;;;;;;10084095;28;20037;-61
2022/05/11 01:40:15;;;;;;;6.80;3.92;;;20.10;73.10;;;;;;10088942;28;20136;-62
2022/05/11 01:45:06;;;;;;;8.63;4.15;;;20.10;73.10;;;;;;10092244;28;20036;-63
2022/05/11 01:49:57;;;;;;;7.75;3.88;;;20.00;74.30;;;;;;10076695;28;20010;-63
2022/05/11 01:54:48;;;;;;;4.85;3.95;;;19.80;74.30;;;;;;10096129;28;20041;-62
2022/05/11 01:59:39;;;;;;;5.55;3.90;;;19.70;74.60;;;;;;10093359;28;20014;-62
2022/05/11 02:09:41;;;;;;;7.55;4.10;;;19.80;75.50;;;;;;10082631;28;20104;-64
2022/05/11 02:14:31;;;;;;;6.53;3.97;;;19.70;75.80;;;;;;10080286;28;20044;-62
2022/05/11 02:19:22;;;;;;;7.05;3.88;;;19.70;76.20;;;;;;10078649;28;20059;-62
2022/05/11 02:24:13;;;;;;;6.25;3.92;;;19.70;76.60;;;;;;10071504;28;20049;-62
2022/05/11 02:29:03;;;;;;;5.60;4.45;;;19.60;77.10;;;;;;10073000;28;20021;-63
2022/05/11 02:33:54;;;;;;;5.65;3.85;;;19.60;78.00;;;;;;10078635;28;20474;-62
2022/05/11 02:38:45;;;;;;;4.55;3.42;;;19.60;77.80;;;;;;10080424;28;20322;-61
2022/05/11 02:43:35;;;;;;;5.82;3.78;;;19.60;78.10;;;;;;10076991;28;20108;-61
2022/05/11 02:48:26;;;;;;;5.82;4.25;;;19.60;78.20;;;;;;10072366;28;20021;-61
2022/05/11 02:53:18;;;;;;;6.10;4.32;;;19.70;78.40;;;;;;10082371;28;20295;-61
2022/05/11 02:58:10;;;;;;;6.95;4.25;;;19.60;78.70;;;;;;10074091;28;20479;-61
2022/05/11 03:03:03;;;;;;;7.30;4.53;;;19.50;79.00;;;;;;10090850;28;20033;-62
2022/05/11 03:07:53;;;;;;;6.10;4.50;;;19.40;79.40;;;;;;10081269;28;20804;-61
2022/05/11 03:12:44;;;;;;;5.60;4.00;;;19.40;79.70;;;;;;10072853;28;20463;-61
2022/05/11 03:17:36;;;;;;;4.88;4.10;;;19.40;80.00;;;;;;10075227;28;20025;-62
2022/05/11 03:22:26;;;;;;;5.90;3.50;;;19.40;80.20;;;;;;10082556;28;20416;-62
2022/05/11 03:27:17;;;;;;;4.20;3.25;;;19.30;80.60;;;;;;10066819;28;20044;-61
2022/05/11 03:37:19;;;;;;;6.88;4.00;;;19.30;81.30;;;;;;10082622;28;20319;-63
2022/05/11 03:42:15;;;;;;;6.20;3.50;;;19.20;81.30;;;;;;10068823;28;20472;-63
2022/05/11 03:47:06;;;;;;;6.53;3.78;;;19.20;81.90;;;;;;10080911;28;20037;-61
2022/05/11 03:51:57;;;;;;;6.70;4.20;;;19.10;82.00;;;;;;10082331;28;20135;-61
2022/05/11 03:56:47;;;;;;;4.03;3.30;;;19.10;82.20;;;;;;10095422;28;20209;-63
2022/05/11 04:01:39;;;;;;;5.13;3.70;;;19.10;82.50;;;;;;10089517;28;20043;-61
2022/05/11 04:06:29;;;;;;;5.55;4.00;;;19.10;82.70;;;;;;10075377;28;20028;-63
2022/05/11 04:11:22;;;;;;;6.57;4.35;;;18.90;83.10;;;;;;10075222;28;20030;-63
2022/05/11 04:16:15;;;;;;;5.53;4.18;;;18.90;83.20;;;;;;10051479;28;20514;-61
2022/05/11 04:21:07;;;;;;;4.60;3.83;;;19.00;83.00;;;;;;10087930;28;20336;-64
2022/05/11 04:25:57;;;;;;;5.28;3.92;;;19.00;83.40;;;;;;10067444;28;20104;-65
2022/05/11 04:30:48;;;;;;;7.38;4.10;;;18.90;83.50;;;;;;10071481;28;20051;-63
2022/05/11 04:35:39;;;;;;;6.13;3.97;;;18.90;83.90;;;;;;10077882;28;20688;-61
2022/05/11 04:40:31;;;;;;;5.10;3.92;;;19.00;83.90;;;;;;10073229;28;20796;-62
2022/05/11 04:45:21;;;;;;;5.07;3.85;;;19.00;83.80;;;;;;10090311;28;20123;-62
2022/05/11 04:50:14;;;;;;;6.35;4.40;;;19.00;84.20;;;;;;10079100;28;20029;-62
2022/05/11 04:55:09;;;;;;;5.53;3.85;;;19.00;84.50;;;;;;10090578;28;20407;-62
2022/05/11 04:59:59;;;;;;;5.75;4.20;;;19.00;84.70;;;;;;10094384;28;20040;-62
2022/05/11 05:04:51;;;;;;;5.53;4.15;;;19.00;84.90;;;;;;10091392;28;20112;-63
2022/05/11 05:09:42;;;;;;;5.13;3.63;;;19.10;84.70;;;;;;10078846;28;20091;-63
2022/05/11 05:14:33;;;;;;;6.82;3.92;;;19.10;84.90;;;;;;10081687;28;20042;-61
2022/05/11 05:19:24;;;;;;;4.93;3.92;;;19.10;85.10;;;;;;10080619;28;20487;-62
2022/05/11 05:24:14;;;;;;;5.07;3.70;;;19.20;85.10;;;;;;10080887;28;20060;-62
2022/05/11 05:34:15;;;;;;;4.68;3.90;;;19.50;84.80;;;;;;10083469;28;20075;-63
2022/05/11 05:39:06;;;;;;;5.32;4.00;;;19.50;84.90;;;;;;10099588;28;20045;-62
2022/05/11 05:43:57;;;;;;;4.50;3.53;;;19.60;84.90;;;;;;10100605;28;20143;-62
2022/05/11 05:48:48;;;;;;;4.65;3.80;;;19.80;84.80;;;;;;10076142;28;20136;-62
2022/05/11 05:53:40;;;;;;;5.63;4.13;;;19.80;84.50;;;;;;10086197;28;20041;-62
2022/05/11 05:58:31;;;;;;;3.92;3.38;;;20.00;84.30;;;;;;10094069;28;20487;-68
2022/05/11 06:03:24;;;;;;;6.28;3.85;;;20.10;84.10;;;;;;10085355;28;20063;-62
2022/05/11 06:08:16;;;;;;;10.48;3.70;;;20.30;83.90;;;;;;10079680;28;20412;-63
2022/05/11 06:13:07;;;;;;;5.63;3.80;;;20.30;83.60;;;;;;10086760;28;20554;-63
2022/05/11 06:17:58;;;;;;;5.63;3.92;;;20.40;83.40;;;;;;10076882;28;20414;-63
2022/05/11 06:22:50;;;;;;;7.40;4.03;;;20.40;83.20;;;;;;10082608;28;20081;-64
2022/05/11 06:27:41;;;;;;;4.35;2.92;;;20.40;83.20;;;;;;10092772;28;20112;-63
2022/05/11 06:32:33;;;;;;;4.43;3.40;;;20.50;82.90;;;;;;10084166;28;20025;-63
2022/05/11 06:37:24;;;;;;;4.10;3.20;;;20.60;82.80;;;;;;10088422;28;20056;-65
2022/05/11 06:42:15;;;;;;;4.28;3.22;;;20.60;82.50;;;;;;10089256;28;20025;-63
2022/05/11 06:47:06;;;;;;;4.75;3.47;;;20.80;82.30;;;;;;10088981;28;20063;-68
2022/05/11 06:51:57;;;;;;;6.07;3.90;;;20.90;81.90;;;;;;10091070;28;20564;-63
2022/05/11 07:01:59;;;;;;;4.68;3.47;;;21.10;81.40;;;;;;10089041;28;20114;-61
2022/05/11 07:06:54;;;;;;;5.55;3.55;;;21.30;81.10;;;;;;10087016;28;20028;-60
2022/05/11 07:16:55;;;;;;;5.65;4.32;;;21.60;80.30;;;;;;10093659;28;20112;-61
2022/05/11 07:21:46;;;;;;;4.28;3.22;;;21.80;80.00;;;;;;10089752;28;20033;-60
2022/05/11 07:26:37;;;;;;;4.20;3.17;;;21.90;79.70;;;;;;10093046;28;20103;-63
2022/05/11 07:31:27;;;;;;;7.15;4.10;;;22.00;79.30;;;;;;10093035;28;20033;-67
2022/05/11 07:36:19;;;;;;;6.25;4.05;;;22.20;79.10;;;;;;10089266;28;20029;-62
2022/05/11 07:41:10;;;;;;;4.93;4.10;;;22.30;78.80;;;;;;10064012;28;20033;-69
2022/05/11 07:46:01;;;;;;;4.97;3.42;;;22.40;78.50;;;;;;10092361;28;20398;-66
2022/05/11 07:50:52;;;;;;;4.80;3.22;;;22.60;78.00;;;;;;10089028;28;20025;-63
2022/05/11 07:55:43;;;;;;;3.78;3.13;;;22.60;77.90;;;;;;10090840;28;20057;-63
2022/05/11 08:00:34;;;;;;;8.65;4.80;;;22.80;77.60;;;;;;10080944;28;20021;-66
2022/05/11 08:05:25;;;;;;;5.40;3.58;;;22.90;77.30;;;;;;10085053;28;20495;-67
2022/05/11 08:10:26;;;;;;;4.13;3.50;;;23.10;76.90;;;;;;10087653;28;20032;-65
2022/05/11 08:15:18;;;;;;;4.85;3.20;;;23.30;76.30;;;;;;10079437;28;20139;-65
2022/05/11 08:20:21;;;;;;;5.90;3.25;;;23.30;76.10;;;;;;10070277;28;20473;-63
2022/05/11 08:25:14;;;;;;;4.28;3.80;;;23.40;75.50;;;;;;10081686;28;20045;-63
2022/05/11 08:35:16;;;;;;;8.35;3.80;;;23.70;75.20;;;;;;10085509;28;20418;-62
2022/05/11 08:40:07;;;;;;;9.45;3.67;;;23.90;74.70;;;;;;10085604;28;20048;-63
2022/05/11 08:45:02;;;;;;;6.75;3.78;;;23.90;74.30;;;;;;10073879;28;20033;-65
2022/05/11 08:49:54;;;;;;;4.80;3.33;;;24.00;74.30;;;;;;10079421;28;20057;-64
2022/05/11 08:55:00;;;;;;;5.05;3.55;;;24.20;73.90;;;;;;10085235;28;20549;-68
2022/05/11 09:00:09;;;;;;;4.20;3.03;;;24.40;73.30;;;;;;10095903;28;20090;-66
2022/05/11 09:05:01;;;;;;;7.25;4.00;;;24.60;72.90;;;;;;10087355;28;20036;-66
2022/05/11 09:09:53;;;;;;;4.65;3.33;;;24.60;72.90;;;;;;10100411;28;20035;-64
2022/05/11 09:14:56;;;;;;;5.38;3.03;;;24.80;72.70;;;;;;10097923;28;20040;-64
2022/05/11 09:20:02;;;;;;;3.92;3.53;;;25.00;72.20;;;;;;10094852;28;20438;-64
2022/05/11 09:24:57;;;;;;;3.90;3.15;;;25.10;71.60;;;;;;10092748;28;20498;-64
2022/05/11 09:29:56;;;;;;;3.75;3.35;;;25.30;71.30;;;;;;10083645;28;20025;-66
2022/05/11 09:34:47;;;;;;;4.75;3.38;;;25.40;71.00;;;;;;10097668;28;20044;-65
2022/05/11 09:39:54;;;;;;;3.42;3.13;;;25.50;70.80;;;;;;10071315;28;20025;-64
2022/05/11 09:44:48;;;;;;;6.30;3.72;;;25.60;69.70;;;;;;10071829;28;20041;-66
2022/05/11 09:49:39;;;;;;;3.67;3.33;;;25.90;69.80;;;;;;10070315;28;20017;-67
2022/05/11 09:54:38;;;;;;;4.75;3.80;;;25.90;69.30;;;;;;10081911;28;20044;-62
2022/05/11 09:59:36;;;;;;;3.65;3.20;;;26.10;69.10;;;;;;10092981;28;20025;-62
2022/05/11 10:04:34;;;;;;;7.50;3.78;;;26.30;68.30;;;;;;10092441;28;20131;-65
2022/05/11 10:09:34;;;;;;;6.15;3.53;;;26.40;68.30;;;;;;10083975;28;20117;-66
2022/05/11 10:25:02;;;;;;;6.80;3.42;;;26.60;67.00;;;;;;10075745;28;20174;-63
2022/05/11 10:30:04;;;;;;;3.77;3.27;;;26.70;65.90;;;;;;10084838;28;20025;-63
2022/05/11 10:35:11;;;;;;;5.32;3.10;;;26.70;65.90;;;;;;10088759;28;20435;-62
2022/05/11 10:40:18;;;;;;;6.50;3.72;;;26.90;65.10;;;;;;10077128;28;20041;-62
2022/05/11 10:45:23;;;;;;;6.30;3.42;;;27.00;64.90;;;;;;10083901;28;20029;-62
2022/05/11 10:50:45;;;;;;;6.30;3.72;;;27.10;64.30;;;;;;10091309;28;20495;-61
2022/05/11 10:55:56;;;;;;;8.68;3.05;;;27.40;63.30;;;;;;10082971;28;20076;-62
2022/05/11 11:00:54;;;;;;;6.50;3.45;;;27.40;62.60;;;;;;10093706;28;20029;-66
2022/05/11 11:07:11;;;;;;;4.72;3.25;;;27.40;62.30;;;;;;10092626;28;20014;-62
2022/05/11 11:11:17;;;;;;;3.65;3.00;;;27.70;62.00;;;;;;10090366;28;20037;-62
2022/05/11 11:16:11;;;;;;;3.72;3.20;;;27.90;60.60;;;;;;10094831;28;20047;-63
2022/05/11 11:21:03;;;;;;;5.15;3.08;;;28.10;60.20;;;;;;10082676;28;20187;-63
2022/05/11 11:26:00;;;;;;;4.00;3.00;;;28.30;59.60;;;;;;10094535;28;20088;-61
2022/05/11 11:31:00;;;;;;;3.10;2.80;;;28.60;59.50;;;;;;10092876;28;20017;-63
2022/05/11 11:35:56;;;;;;;3.38;2.72;;;28.70;57.70;;;;;;10085730;28;20472;-62
2022/05/11 11:41:09;;;;;;;4.50;2.70;;;28.70;57.50;;;;;;10085498;28;20533;-60
2022/05/11 11:46:04;;;;;;;4.57;3.13;;;28.60;55.30;;;;;;10081159;28;20100;-62
2022/05/11 11:50:59;;;;;;;4.00;2.03;;;28.30;56.30;;;;;;10084734;28;20310;-63
2022/05/11 11:55:50;;;;;;;2.67;2.20;;;28.20;54.60;;;;;;10083017;28;20041;-61
2022/05/11 12:00:56;;;;;;;3.72;2.47;;;28.20;52.90;;;;;;10071509;28;20434;-61
2022/05/11 12:05:50;;;;;;;2.20;1.83;;;28.40;51.30;;;;;;10078407;28;20022;-61
2022/05/11 12:16:10;;;;;;;5.03;2.63;;;29.00;49.50;;;;;;10077806;28;20398;-61
2022/05/11 12:21:03;;;;;;;2.85;2.55;;;29.30;49.40;;;;;;10088698;28;20510;-63
2022/05/11 12:25:59;;;;;;;3.75;2.40;;;29.50;49.30;;;;;;10066592;28;20045;-62
2022/05/11 12:30:50;;;;;;;2.80;2.03;;;30.00;48.70;;;;;;10065749;28;20025;-62
2022/05/11 12:35:46;;;;;;;3.58;2.03;;;30.30;48.10;;;;;;10088429;28;20029;-60
2022/05/11 12:40:50;;;;;;;3.08;1.80;;;30.80;47.50;;;;;;10083780;28;20160;-62
2022/05/11 12:45:45;;;;;;;3.28;1.80;;;31.10;45.80;;;;;;10081796;28;20549;-62
2022/05/11 12:50:47;;;;;;;2.35;1.83;;;31.40;46.30;;;;;;10080032;28;20037;-62
2022/05/11 12:55:37;;;;;;;3.35;1.90;;;31.80;45.10;;;;;;10089492;28;20037;-68
2022/05/11 13:00:30;;;;;;;1.80;1.50;;;32.90;44.60;;;;;;10086124;28;20033;-64
2022/05/11 13:05:21;;;;;;;2.95;1.92;;;34.20;43.00;;;;;;10085785;28;20169;-66
2022/05/11 13:10:25;;;;;;;4.67;1.80;;;34.70;41.50;;;;;;10083144;28;20206;-66
2022/05/11 13:15:36;;;;;;;1.88;1.73;;;35.20;40.20;;;;;;10094200;28;20513;-63
2022/05/11 13:20:32;;;;;;;1.90;1.77;;;35.70;38.70;;;;;;10098558;28;20477;-65
2022/05/11 13:25:46;;;;;;;2.42;1.70;;;36.20;38.60;;;;;;10100177;28;20052;-67
2022/05/11 13:30:42;;;;;;;1.92;1.60;;;37.40;35.50;;;;;;10093435;28;20075;-66
2022/05/11 13:35:38;;;;;;;4.68;1.85;;;37.40;36.40;;;;;;10091077;28;20558;-65
2022/05/11 13:40:35;;;;;;;2.88;1.40;;;37.60;34.50;;;;;;10097555;28;20467;-61
2022/05/11 13:45:26;;;;;;;2.22;1.60;;;37.80;33.40;;;;;;10095524;28;20148;-57
2022/05/11 13:50:28;;;;;;;;;;;37.80;32.20;;;;;;10091303;28;20226;-60
2022/05/11 13:56:00;;;;;;;2.90;1.50;;;37.90;31.60;;;;;;10096486;28;19913;-62
2022/05/11 14:00:54;;;;;;;4.55;1.60;;;38.00;29.20;;;;;;10059711;28;20323;-68
2022/05/11 14:05:45;;;;;;;1.42;1.30;;;38.20;30.50;;;;;;10075747;28;20105;-66
2022/05/11 14:10:36;;;;;;;1.85;1.42;;;38.10;30.00;;;;;;10073123;28;20025;-66
2022/05/11 14:15:26;;;;;;;3.97;1.70;;;37.60;29.00;;;;;;10072220;28;20045;-61
2022/05/11 14:20:22;;;;;;;2.20;1.30;;;37.70;29.20;;;;;;10077397;28;20228;-67
2022/05/11 14:25:15;;;;;;;3.03;1.58;;;37.40;28.70;;;;;;10090775;28;20068;-67
2022/05/11 14:30:07;;;;;;;5.65;1.20;;;37.60;28.40;;;;;;10066865;28;20036;-68
2022/05/11 14:34:58;;;;;;;2.40;1.17;;;37.30;27.90;;;;;;10102851;28;20155;-65
2022/05/11 14:39:50;;;;;;;3.13;1.65;;;36.80;27.60;;;;;;10081596;28;20029;-64
2022/05/11 14:44:40;;;;;;;3.55;1.45;;;37.00;27.60;;;;;;10086025;28;20029;-68
2022/05/11 14:49:31;;;;;;;;;;;37.10;27.50;;;;;;10086740;28;20444;-70
2022/05/11 14:54:22;;;;;;;3.47;1.50;;;37.10;27.00;;;;;;10084341;28;19936;-65
2022/05/11 15:04:35;;;;;;;2.13;1.25;;;36.80;27.10;;;;;;10082776;28;20027;-65
2022/05/11 15:09:27;;;;;;;3.72;1.38;;;36.90;26.70;;;;;;10083696;28;20026;-68
2022/05/11 15:14:26;;;;;;;2.80;1.48;;;36.70;27.00;;;;;;10079180;28;20119;-70
2022/05/11 15:19:18;;;;;;;2.47;1.10;;;36.90;26.70;;;;;;10098429;28;20499;-69
2022/05/11 15:24:08;;;;;;;1.60;1.50;;;36.60;26.60;;;;;;10077896;28;20056;-64
2022/05/11 15:28:59;;;;;;;1.50;1.40;;;36.40;26.30;;;;;;10079528;28;20051;-66
2022/05/11 15:33:50;;;;;;;2.00;1.33;;;37.00;26.20;;;;;;10073792;28;20049;-67
2022/05/11 15:38:40;;;;;;;3.22;1.52;;;37.00;26.10;;;;;;10077517;28;20057;-64
2022/05/11 15:43:31;;;;;;;2.13;1.30;;;36.80;26.10;;;;;;10068532;28;20028;-64
2022/05/11 15:48:22;;;;;;;2.33;1.40;;;37.00;25.90;;;;;;10075359;28;20052;-62
2022/05/11 15:53:33;;;;;;;1.50;1.23;;;37.50;25.90;;;;;;10074299;28;20108;-63
2022/05/11 15:58:25;;;;;;;;;;;37.60;25.90;;;;;;10097891;28;20254;-62
2022/05/11 16:03:17;;;;;;;1.55;1.45;;;38.30;25.80;;;;;;10089291;28;19905;-65
2022/05/11 16:08:08;;;;;;;1.60;1.40;;;38.80;25.60;;;;;;10092454;28;20464;-62
2022/05/11 16:12:59;;;;;;;1.40;1.30;;;39.50;25.60;;;;;;10093977;28;20029;-60
2022/05/11 16:22:59;;;;;;;2.35;1.33;;;40.40;25.30;;;;;;10084691;28;20002;-62
2022/05/11 16:27:50;;;;;;;;;;;39.70;25.70;;;;;;10097230;28;20048;-65
2022/05/11 16:32:41;;;;;;;2.90;1.90;;;39.70;25.60;;;;;;10099814;28;19991;-62
2022/05/11 16:37:31;;;;;;;2.75;1.75;;;40.50;25.50;;;;;;10100260;28;20544;-63
2022/05/11 16:42:24;;;;;;;;;;;41.10;25.40;;;;;;10101240;28;20253;-62
2022/05/11 16:47:15;;;;;;;2.38;1.65;;;41.20;25.10;;;;;;10104740;28;19986;-63
2022/05/11 16:52:06;;;;;;;;;;;40.80;25.30;;;;;;10090553;28;20026;-62
2022/05/11 16:56:57;;;;;;;;;;;41.30;25.20;;;;;;10096259;28;20151;-62
2022/05/11 17:01:49;;;;;;;3.23;1.60;;;40.50;25.40;;;;;;10092868;28;20281;-64
2022/05/11 17:06:40;;;;;;;1.55;1.40;;;40.40;25.50;;;;;;10083121;28;20479;-61
2022/05/11 17:11:31;;;;;;;1.70;1.60;;;39.60;25.70;;;;;;10096566;28;20028;-66
2022/05/11 17:16:21;;;;;;;2.87;1.97;;;39.00;26.00;;;;;;10087398;28;20041;-65
2022/05/11 17:21:12;;;;;;;4.37;1.77;;;38.50;26.30;;;;;;10099040;28;20086;-63
2022/05/11 17:26:04;;;;;;;2.00;1.80;;;38.30;26.40;;;;;;10092901;28;20043;-63
2022/05/11 17:30:57;;;;;;;1.95;1.65;;;36.10;27.10;;;;;;10098712;28;20028;-67
2022/05/11 17:35:48;;;;;;;3.07;1.60;;;33.40;28.60;;;;;;10097424;28;20120;-64
2022/05/11 17:40:41;;;;;;;3.67;1.90;;;32.90;29.00;;;;;;10091298;28;20132;-63
2022/05/11 17:45:32;;;;;;;2.40;1.80;;;32.50;29.70;;;;;;10099399;28;20080;-66
2022/05/11 17:50:23;;;;;;;2.88;1.48;;;31.90;29.60;;;;;;10099078;28;20043;-65
2022/05/11 17:55:15;;;;;;;3.28;1.80;;;31.40;30.10;;;;;;10085251;28;20479;-62
2022/05/11 18:00:08;;;;;;;3.25;1.70;;;31.10;30.50;;;;;;10094830;28;20503;-62
2022/05/11 18:04:59;;;;;;;2.20;1.60;;;30.80;31.10;;;;;;10093540;28;20060;-65
2022/05/11 18:09:52;;;;;;;3.67;2.40;;;30.60;31.60;;;;;;10096582;28;20048;-64
2022/05/11 18:14:42;;;;;;;3.22;2.10;;;30.50;32.00;;;;;;10070370;28;20495;-66
2022/05/11 18:19:34;;;;;;;6.43;3.00;;;30.40;32.50;;;;;;10095433;28;20065;-66
2022/05/11 18:24:25;;;;;;;3.42;2.33;;;30.20;32.90;;;;;;10093087;28;20127;-64
2022/05/11 18:29:15;;;;;;;4.70;2.45;;;30.10;33.30;;;;;;10069201;28;20609;-66
2022/05/11 18:34:09;;;;;;;3.75;2.35;;;30.10;33.60;;;;;;10090122;28;20028;-64
2022/05/11 18:39:00;;;;;;;4.05;2.40;;;30.00;33.90;;;;;;10088630;28;20514;-64
2022/05/11 18:43:51;;;;;;;6.13;2.20;;;29.60;34.40;;;;;;10088988;28;20047;-65
2022/05/11 18:48:42;;;;;;;3.50;2.53;;;29.30;35.00;;;;;;10090398;28;20021;-67
2022/05/11 18:53:32;;;;;;;3.45;3.03;;;29.30;35.40;;;;;;10093586;28;20043;-69
2022/05/11 18:58:29;;;;;;;4.25;2.35;;;29.10;35.60;;;;;;10093067;28;20027;-74
2022/05/11 19:03:20;;;;;;;2.65;2.17;;;29.00;35.90;;;;;;10073197;28;20111;-71
2022/05/11 19:08:11;;;;;;;4.72;2.30;;;28.90;36.20;;;;;;10094013;28;20731;-70
2022/05/11 19:13:03;;;;;;;3.10;2.78;;;28.80;36.50;;;;;;10096707;28;20032;-68
2022/05/11 19:17:55;;;;;;;4.75;2.75;;;28.70;36.70;;;;;;10076177;28;20144;-77
2022/05/11 19:22:47;;;;;;;5.28;2.70;;;28.60;37.00;;;;;;10057402;28;1158232;-67
2022/05/11 19:27:41;;;;;;;4.80;2.50;;;28.60;37.30;;;;;;10068765;28;20026;-66
2022/05/11 19:32:33;;;;;;;4.88;2.13;;;28.40;37.60;;;;;;10088150;28;20083;-65
2022/05/11 19:37:24;;;;;;;2.63;1.92;;;28.30;38.00;;;;;;10075671;28;20723;-66
2022/05/11 19:42:15;;;;;;;3.47;2.10;;;28.30;38.20;;;;;;10065081;28;20395;-65
2022/05/11 19:47:06;;;;;;;5.82;2.88;;;28.20;38.60;;;;;;10061164;28;20029;-65
2022/05/11 19:51:57;;;;;;;6.15;3.53;;;28.10;38.70;;;;;;10069327;28;20028;-63
2022/05/11 19:56:48;;;;;;;4.40;2.63;;;28.10;39.00;;;;;;10087441;28;20033;-68
2022/05/11 20:01:39;;;;;;;6.15;2.70;;;28.10;39.20;;;;;;10086413;28;20063;-73
2022/05/11 20:06:30;;;;;;;3.70;2.47;;;28.00;39.30;;;;;;10072990;28;20039;-71
2022/05/11 20:11:23;;;;;;;6.88;2.78;;;27.90;39.70;;;;;;10076754;28;20029;-73
2022/05/11 20:16:15;;;;;;;4.50;2.75;;;27.80;39.50;;;;;;10074632;28;20075;-70
2022/05/11 20:21:06;;;;;;;2.92;2.05;;;27.90;39.50;;;;;;10090442;28;20112;-72
2022/05/11 20:25:57;;;;;;;5.47;2.50;;;27.70;39.50;;;;;;10077185;28;20097;-72
2022/05/11 20:30:48;;;;;;;3.97;2.28;;;27.70;39.50;;;;;;10100112;28;20020;-71
2022/05/11 20:35:40;;;;;;;2.70;1.73;;;27.60;39.60;;;;;;10096218;28;20048;-73
2022/05/11 20:40:33;;;;;;;7.13;2.30;;;27.50;39.50;;;;;;10090575;28;20028;-69
2022/05/11 20:45:32;;;;;;;2.80;2.40;;;27.50;39.50;;;;;;10092463;28;20044;-70
2022/05/11 20:50:26;;;;;;;6.30;3.22;;;27.50;39.40;;;;;;10082568;28;20021;-71
2022/05/11 20:55:25;;;;;;;3.53;2.63;;;27.40;39.50;;;;;;10077615;28;20033;-72
2022/05/11 21:00:20;;;;;;;2.65;2.00;;;27.40;39.60;;;;;;10098611;28;20111;-69
2022/05/11 21:05:12;;;;;;;;;;;27.30;39.50;;;;;;10085763;28;20065;-69
2022/05/11 21:10:03;;;;;;;4.40;2.15;;;27.20;39.50;;;;;;10075716;28;19990;-68
2022/05/11 21:14:55;;;;;;;4.85;2.40;;;27.10;39.50;;;;;;10070716;28;20294;-70
2022/05/11 21:19:46;;;;;;;4.07;2.15;;;27.10;39.60;;;;;;10073194;28;20528;-74
2022/05/11 21:24:36;;;;;;;3.45;2.53;;;27.10;39.70;;;;;;10085021;28;20041;-71
2022/05/11 21:29:27;;;;;;;4.32;2.55;;;27.00;39.80;;;;;;10073804;28;20039;-71
2022/05/11 21:34:18;;;;;;;2.83;1.70;;;26.90;39.90;;;;;;10092813;28;20085;-72
2022/05/11 21:39:09;;;;;;;3.10;2.22;;;26.80;40.00;;;;;;10079457;28;20425;-72
2022/05/11 21:44:00;;;;;;;2.10;1.70;;;26.70;40.10;;;;;;10076155;28;20029;-68
2022/05/11 21:48:50;;;;;;;2.85;1.60;;;26.60;40.30;;;;;;10092700;28;20373;-71
2022/05/11 21:53:41;;;;;;;3.85;2.10;;;26.50;40.40;;;;;;10105179;28;20025;-71
2022/05/11 21:58:33;;;;;;;1.95;1.75;;;26.50;40.50;;;;;;10095697;28;20272;-72
2022/05/11 22:03:25;;;;;;;3.42;1.70;;;26.40;40.50;;;;;;10084129;28;20460;-73
2022/05/11 22:08:16;;;;;;;2.22;1.80;;;26.20;40.70;;;;;;10088332;28;20078;-70
2022/05/11 22:13:08;;;;;;;5.38;2.17;;;26.10;40.80;;;;;;10090847;28;20402;-76
2022/05/11 22:18:00;;;;;;;3.05;1.70;;;26.20;40.70;;;;;;10067523;28;20033;-75
2022/05/11 22:22:50;;;;;;;2.72;1.98;;;26.00;40.80;;;;;;10078387;28;20072;-74
2022/05/11 22:27:56;;;;;;;2.42;2.10;;;25.80;40.90;;;;;;10067709;28;20057;-74
2022/05/11 22:32:46;;;;;;;8.93;3.95;;;25.70;41.40;;;;;;10092463;28;20029;-73
2022/05/11 22:37:37;;;;;;;3.33;2.63;;;25.70;41.50;;;;;;10079606;28;20029;-73
2022/05/11 22:42:28;;;;;;;5.18;2.05;;;25.70;41.40;;;;;;10069287;28;20021;-74
2022/05/11 22:47:19;;;;;;;5.43;3.13;;;25.60;41.70;;;;;;10095723;28;20093;-70
2022/05/11 22:52:09;;;;;;;3.50;2.03;;;25.60;42.00;;;;;;10084175;28;20018;-71
2022/05/11 22:57:00;;;;;;;2.30;2.10;;;25.80;41.90;;;;;;10094700;28;20490;-72
2022/05/11 23:01:51;;;;;;;2.72;1.90;;;25.70;42.00;;;;;;10089094;28;20036;-73
2022/05/11 23:06:42;;;;;;;2.63;1.95;;;25.80;42.10;;;;;;10074959;28;20439;-69
2022/05/11 23:11:32;;;;;;;4.25;1.90;;;25.80;42.20;;;;;;10087793;28;20648;-71
2022/05/11 23:16:23;;;;;;;4.80;2.85;;;25.80;42.20;;;;;;10088485;28;20055;-70
2022/05/11 23:21:14;;;;;;;3.53;2.08;;;25.80;42.20;;;;;;10081039;28;20057;-71
2022/05/11 23:26:04;;;;;;;2.83;2.08;;;25.80;42.30;;;;;;10078701;28;20052;-69
2022/05/11 23:30:55;;;;;;;3.38;2.00;;;25.80;42.60;;;;;;10078936;28;20024;-68
2022/05/11 23:35:46;;;;;;;3.28;2.30;;;25.70;42.70;;;;;;10083300;28;20062;-69
2022/05/11 23:40:36;;;;;;;2.97;1.77;;;25.70;42.80;;;;;;10065824;28;20021;-68
2022/05/11 23:45:27;;;;;;;5.18;1.65;;;25.70;42.90;;;;;;10067787;28;20037;-69
2022/05/11 23:50:20;;;;;;;4.60;2.08;;;25.70;42.90;;;;;;10067028;28;20021;-70
2022/05/11 23:55:12;;;;;;;2.20;2.00;;;25.60;43.30;;;;;;10090545;28;20041;-69
